Aérodrome :
LOGIN :

S'inscrire | Disclaimer

   EN    FR    IT 

 










Légende :    VFR   VFR Marginal   IFR   IFR Intensif   IFR Très Intensif
Visi : 
Plafond : 
>= 8 km
>= 3000ft
5 à 8 km
1000 à 3000 ft
1500m à 5 km
500 à 1000 ft
800 à 1500m
200 à 500 ft
< 800m
< 200 ft
Symboles :   Orages  Brouillard  Fortes neiges  Fortes précipitations  Vent > 20 kt
SIGMETs :   Divers  Orages  Givrage  Turbulence  Onde Orograph.  Cendres Volcan.







- Altitude de l'aérodrome : 636 ft


LPBJ - Beja Air Base

DERNIER METAR :
  • 190900Z VRB02KT 6000 1800N PRFG FEW005 10/10 Q1020

METARs EXPIRÉS :
  • 190820Z VRB01KT 0500 FG FEW005 08/08 Q1020
  • 190800Z 13003KT 2000 PRFG FEW005 08/08 Q1020
  • 190700Z 13003KT 1000 PRFG FEW003 07/07 Q1019

TAF TAF LPBJ
Valide du 19 à 06h jusqu'au 20 à 06h UTC


190512Z 1906/2006 VRB02KT 9999 SCT040
PROB40 1906/1910 0200 FG BKN002
BECMG 1909/1912 18007KT FEW020 SCT040
TEMPO 1909/1919 6000 -SHRA FEW015 BKN020
PROB40
TEMPO 1915/1918 4000 SHRA SCT015 FEW020TCU
BECMG 1918/1921 VRB02KT 5000 BCFG SCT002
PROB40 2000/2006 0200 FG BKN002
Pas de NOTAMs connus pour ce terrain.



MET'MAP, la Météo Aéronautique d'un coup d'oeil ! - Copyright ORBIFLY Décembre 2007 - Disclaimer

ORBIFLY MET'MAP TEAM :

Programmation & Développement : Alexandra Zaïnal
Conception & Développement : Baudouin d'Aumeries
Co-Programmation & Développement : Marc-Olivier Méhu
Soutien technique & logistique : Manuel Goepfert

Contact : metmap@orbifly.com




SOURCES & CREDITS :

   NOAA